Time;durP1;ratioP1;P1;durP2;ratioP2;P2;SDS_P1;SDS_P2;PMS_P1;PMS_P2;Temp;Humidity;BMP_temperature;BMP_pressure;BME280_temperature;BME280_humidity;BME280_pressure;Samples;Min_cycle;Max_cycle;Signal;HPM_P1;HPM_P2
2022/12/12 00:01:33;;;;;;;20.70;12.13;;;-1.50;99.90;;;-141.84;78.69;18566.16;5042955;28;20221;-56
2022/12/12 00:04:02;;;;;;;19.73;11.97;;;-1.60;99.90;;;-141.84;78.96;18529.59;5043853;28;20232;-56
2022/12/12 00:06:31;;;;;;;21.93;12.63;;;-1.60;99.90;;;-141.84;78.83;18513.34;5040462;28;20224;-58
2022/12/12 00:08:59;;;;;;;20.80;11.97;;;-1.50;99.90;;;-141.84;78.48;18551.94;5043604;28;20217;-58
2022/12/12 00:11:27;;;;;;;25.27;13.70;;;-1.50;99.90;;;-141.84;78.71;18556.00;5043559;28;20209;-56
2022/12/12 00:13:56;;;;;;;22.07;12.57;;;-1.50;99.90;;;-141.84;79.04;18491.00;5039722;28;20290;-57
2022/12/12 00:16:25;;;;;;;20.47;11.33;;;-1.50;99.90;;;-141.84;78.38;18519.44;5031976;28;20702;-56
2022/12/12 00:18:55;;;;;;;23.37;12.13;;;-1.50;99.90;;;-141.84;78.52;18521.47;5031459;28;20236;-56
2022/12/12 00:21:26;;;;;;;23.30;12.37;;;-1.50;99.90;;;-141.84;78.04;18558.03;5042852;28;20225;-57
2022/12/12 00:23:55;;;;;;;24.10;12.10;;;-1.40;99.90;;;-141.84;78.20;18521.47;5039304;28;20313;-56
2022/12/12 00:26:26;;;;;;;19.93;12.03;;;-1.60;99.90;;;-141.84;78.69;18525.53;5033209;28;20263;-57
2022/12/12 00:28:55;;;;;;;20.67;12.17;;;-1.50;99.90;;;-141.84;78.39;18545.84;5047219;28;20237;-58
2022/12/12 00:31:23;;;;;;;23.20;12.40;;;-1.50;99.90;;;-141.84;78.54;18519.44;5043000;28;20783;-58
2022/12/12 00:33:52;;;;;;;22.70;12.07;;;-1.50;99.90;;;-141.84;77.96;18515.38;5039156;28;20275;-57
2022/12/12 00:36:25;;;;;;;23.43;12.73;;;-1.50;99.90;;;-141.84;77.42;18541.78;5047811;28;20233;-57
2022/12/12 00:38:55;;;;;;;21.67;11.47;;;-1.40;99.90;;;-141.84;77.23;18560.06;5034623;28;20226;-54
2022/12/12 00:41:23;;;;;;;19.30;12.33;;;-1.50;99.90;;;-141.84;77.50;18558.03;5034900;28;20201;-58
2022/12/12 00:43:51;;;;;;;22.67;11.63;;;-1.50;99.90;;;-141.84;77.44;18547.88;5039438;28;20218;-57
2022/12/12 00:46:24;;;;;;;23.57;12.37;;;-1.50;99.90;;;-141.84;77.72;18560.06;5031499;28;20279;-56
2022/12/12 00:48:57;;;;;;;21.60;11.47;;;-1.40;99.90;;;-141.84;77.14;18517.41;5042425;28;20419;-55
2022/12/12 00:51:30;;;;;;;21.43;11.77;;;-1.40;99.90;;;-141.84;75.75;18568.19;5035275;28;20400;-58
2022/12/12 00:53:59;;;;;;;23.37;11.93;;;-1.40;99.90;;;-141.84;76.14;18553.97;5037849;28;20226;-57
2022/12/12 00:56:29;;;;;;;21.67;11.53;;;-1.40;99.90;;;-141.84;76.37;18525.53;5038161;28;20208;-58
2022/12/12 00:58:57;;;;;;;21.30;12.37;;;-1.40;99.90;;;-141.84;76.93;18537.72;5033558;28;20232;-56
2022/12/12 01:01:29;;;;;;;21.90;12.53;;;-1.40;99.90;;;-141.84;76.24;18547.88;5042458;28;20234;-56
2022/12/12 01:03:58;;;;;;;22.90;12.30;;;-1.40;99.90;;;-141.84;76.13;18562.09;5036976;28;20276;-57
2022/12/12 01:06:28;;;;;;;19.23;11.60;;;-1.40;99.90;;;-141.84;75.86;18537.72;5039065;28;20232;-57
2022/12/12 01:08:57;;;;;;;21.00;12.17;;;-1.40;99.90;;;-141.84;76.10;18547.88;5042596;28;20276;-58
2022/12/12 01:11:25;;;;;;;19.50;11.70;;;-1.40;99.90;;;-141.84;75.75;18515.38;5034661;28;20216;-58
2022/12/12 01:13:55;;;;;;;25.13;12.27;;;-1.40;99.90;;;-141.84;75.83;18568.19;5051296;28;20216;-57
2022/12/12 01:16:24;;;;;;;21.13;11.87;;;-1.40;99.90;;;-141.84;76.52;18545.84;5031237;28;20252;-56
2022/12/12 01:18:53;;;;;;;21.67;11.90;;;-1.40;99.90;;;-141.84;76.32;18547.88;5034629;28;20284;-58
2022/12/12 01:21:21;;;;;;;21.10;12.97;;;-1.40;99.90;;;-141.84;76.26;18570.22;5041688;28;20621;-56
2022/12/12 01:23:51;;;;;;;19.47;12.27;;;-1.40;99.90;;;-141.84;76.51;18549.91;5038865;28;20702;-57
2022/12/12 01:26:24;;;;;;;19.10;10.97;;;-1.40;99.90;;;-141.84;76.39;18537.72;5044089;28;20555;-54
2022/12/12 01:28:53;;;;;;;20.50;11.77;;;-1.40;99.90;;;-141.84;76.15;18545.84;5046078;28;20213;-56
2022/12/12 01:31:22;;;;;;;24.27;12.40;;;-1.40;99.90;;;-141.84;75.52;18562.09;5038253;28;20703;-57
2022/12/12 01:33:51;;;;;;;23.40;13.27;;;-1.40;99.90;;;-141.84;75.72;18547.88;5038452;28;20236;-57
2022/12/12 01:36:22;;;;;;;20.97;12.73;;;-1.40;99.90;;;-141.84;76.25;18566.16;5035135;28;20619;-57
2022/12/12 01:38:55;;;;;;;21.63;12.07;;;-1.40;99.90;;;-141.84;76.48;18560.06;5034388;28;20233;-56
2022/12/12 01:41:25;;;;;;;20.60;12.37;;;-1.50;99.90;;;-141.84;76.28;18549.91;5034257;28;20221;-58
2022/12/12 01:43:54;;;;;;;20.23;12.13;;;-1.50;99.90;;;-141.84;76.40;18553.97;5038531;28;20739;-55
2022/12/12 01:46:38;;;;;;;20.47;11.53;;;-1.50;99.90;;;-141.84;75.96;18539.75;5038543;28;20229;-55
2022/12/12 01:49:16;;;;;;;22.67;12.50;;;-1.20;99.90;;;-141.84;76.30;18549.91;5046519;28;20641;-56
2022/12/12 01:51:47;;;;;;;18.90;13.03;;;-1.60;99.90;;;-141.84;76.74;18553.97;5041135;28;20686;-54
2022/12/12 01:54:24;;;;;;;21.80;12.53;;;-1.60;99.90;;;-141.84;75.81;18533.66;5038616;28;20332;-56
2022/12/12 01:56:56;;;;;;;20.97;11.73;;;-1.60;99.90;;;-141.84;75.49;18521.47;5044669;28;20224;-57
2022/12/12 01:59:26;;;;;;;18.90;12.53;;;-1.60;99.90;;;-141.84;75.81;18558.03;5045829;28;20209;-56
2022/12/12 02:01:55;;;;;;;20.87;12.37;;;-1.60;99.90;;;-141.84;76.06;18553.97;5050677;28;20225;-58
2022/12/12 02:04:26;;;;;;;21.70;12.80;;;-1.60;99.90;;;-141.84;76.32;18509.28;5043465;28;20221;-59
2022/12/12 02:06:57;;;;;;;22.90;12.43;;;-1.70;99.90;;;-141.84;76.23;18558.03;5042046;28;20226;-57
2022/12/12 02:09:27;;;;;;;20.40;12.33;;;-1.70;99.90;;;-141.84;76.23;18578.38;5034459;28;20304;-58
2022/12/12 02:11:57;;;;;;;21.83;12.47;;;-1.70;99.90;;;-141.84;76.46;18515.38;5042392;28;20278;-56
2022/12/12 02:14:31;;;;;;;19.47;12.27;;;-1.70;99.90;;;-141.84;76.75;18519.44;5036952;28;20217;-56
2022/12/12 02:17:34;;;;;;;22.93;12.67;;;-1.80;99.90;;;-141.84;77.14;18606.81;5046371;28;20652;-56
2022/12/12 02:20:46;;;;;;;20.97;12.20;;;-1.90;99.90;;;-141.84;77.55;18545.84;5046075;28;20307;-57
2022/12/12 02:23:52;;;;;;;19.43;11.77;;;-1.90;99.90;;;-141.84;77.71;18529.59;5033961;28;20670;-57
2022/12/12 02:27:29;;;;;;;21.43;12.23;;;-1.90;99.90;;;-141.84;77.82;18527.56;5034823;28;20226;-56
2022/12/12 02:30:11;;;;;;;21.93;12.90;;;-1.90;99.90;;;-141.84;77.74;18535.69;5029185;28;20237;-57
2022/12/12 02:33:02;;;;;;;20.90;12.20;;;-1.90;99.90;;;-141.84;77.90;18578.38;5045259;28;20255;-59
2022/12/12 02:35:47;;;;;;;22.17;12.57;;;-2.00;99.90;;;-141.84;78.13;18519.44;5033754;28;20206;-57
2022/12/12 02:38:28;;;;;;;21.53;11.50;;;-1.90;99.90;;;-141.84;78.09;18535.69;5034428;28;20217;-57
2022/12/12 02:41:13;;;;;;;19.77;12.37;;;-1.90;99.90;;;-141.84;77.83;18505.22;5033848;28;20230;-57
2022/12/12 02:43:56;;;;;;;22.93;12.20;;;-2.00;99.90;;;-141.84;77.69;18507.25;5042659;28;20229;-56
2022/12/12 02:46:33;;;;;;;22.17;12.43;;;-1.90;99.90;;;-141.84;77.15;18511.31;5045392;28;20217;-57
2022/12/12 02:49:09;;;;;;;22.80;12.67;;;-1.90;99.90;;;-141.84;77.92;18535.69;5044772;28;20229;-58
2022/12/12 02:51:40;;;;;;;22.63;13.20;;;-2.00;99.90;;;-141.84;78.41;18515.38;5046823;28;20225;-57
2022/12/12 02:54:15;;;;;;;22.20;12.40;;;-2.00;99.90;;;-141.84;78.85;18547.88;5038580;28;20256;-56
2022/12/12 02:56:52;;;;;;;22.10;13.33;;;-2.20;99.90;;;-141.84;79.12;18531.63;5048130;28;20232;-57
2022/12/12 02:59:29;;;;;;;23.90;12.67;;;-2.20;99.90;;;-141.84;79.02;18488.97;5044077;28;20220;-57
2022/12/12 03:02:37;;;;;;;18.77;12.23;;;-2.30;99.90;;;-141.84;79.12;18509.28;5041242;28;20282;-58
2022/12/12 03:08:46;;;;;;;23.40;13.27;;;-2.40;99.90;;;-141.84;79.51;18493.03;5045219;28;20248;-55
2022/12/12 03:11:25;;;;;;;26.00;14.13;;;-2.50;99.90;;;-141.84;79.57;18511.31;5036069;28;20202;-55
2022/12/12 03:14:03;;;;;;;20.33;12.80;;;-2.50;99.90;;;-141.84;79.57;18507.25;5040752;28;20620;-57
2022/12/12 03:16:38;;;;;;;23.67;13.80;;;-2.40;99.90;;;-141.84;79.67;18509.28;5043674;28;20339;-55
2022/12/12 03:19:16;;;;;;;24.47;13.23;;;-2.40;99.90;;;-141.84;79.61;18527.56;5032460;28;20284;-57
2022/12/12 03:21:53;;;;;;;22.00;13.30;;;-2.40;99.90;;;-141.84;79.97;18515.38;5038927;28;20228;-54
2022/12/12 03:24:33;;;;;;;24.10;13.13;;;-2.30;99.90;;;-141.84;80.35;18533.66;5045149;28;20277;-58
2022/12/12 03:27:10;;;;;;;21.77;12.83;;;-2.40;99.90;;;-141.84;80.71;18523.50;5045097;28;20228;-57
2022/12/12 03:29:43;;;;;;;24.13;14.20;;;-2.40;99.90;;;-141.84;80.56;18533.66;5042402;28;20679;-55
2022/12/12 03:32:17;;;;;;;23.07;13.20;;;-2.30;99.90;;;-141.84;80.50;18501.16;5043184;28;20219;-57
2022/12/12 03:34:53;;;;;;;21.77;12.90;;;-2.30;99.90;;;-141.84;80.27;18505.22;5032967;28;20241;-54
2022/12/12 03:37:29;;;;;;;20.97;13.10;;;-2.30;99.90;;;-141.84;80.33;18503.19;5041680;28;20217;-55
2022/12/12 03:40:05;;;;;;;22.97;13.67;;;-2.30;99.90;;;-141.84;80.25;18497.09;5032558;28;20221;-57
2022/12/12 03:42:42;;;;;;;22.43;13.20;;;-2.30;99.90;;;-141.84;80.61;18513.34;5044022;28;20229;-57
2022/12/12 03:45:18;;;;;;;23.33;13.53;;;-2.30;99.90;;;-141.84;79.69;18513.34;5032481;28;20237;-57
2022/12/12 03:47:53;;;;;;;21.10;12.97;;;-2.30;99.90;;;-141.84;79.45;18466.63;5038936;28;20236;-58
2022/12/12 03:50:25;;;;;;;25.67;14.33;;;-2.30;99.90;;;-141.84;79.48;18501.16;5036163;28;20212;-58
2022/12/12 03:53:02;;;;;;;25.53;14.20;;;-2.20;99.90;;;-141.84;79.77;18486.94;5044300;28;20213;-57
2022/12/12 03:55:40;;;;;;;22.00;13.50;;;-2.10;99.90;;;-141.84;79.49;18501.16;5031969;28;20589;-56
2022/12/12 03:58:17;;;;;;;24.90;13.53;;;-2.00;99.90;;;-141.84;79.39;18513.34;5037735;28;20225;-58
2022/12/12 04:00:50;;;;;;;25.60;14.00;;;-2.10;99.90;;;-141.84;79.49;18505.22;5032341;28;20287;-59
2022/12/12 04:03:27;;;;;;;21.53;13.63;;;-2.10;99.90;;;-141.84;79.54;18513.34;5043995;28;20697;-58
2022/12/12 04:15:07;;;;;;;22.33;13.27;;;-2.00;99.90;;;-141.84;79.09;18521.47;5048384;28;20266;-57
2022/12/12 04:17:44;;;;;;;24.07;14.27;;;-2.00;99.90;;;-141.84;78.57;18519.44;5050660;28;20660;-57
2022/12/12 04:23:27;;;;;;;21.80;12.77;;;-1.90;99.90;;;-141.84;78.95;18478.81;5043444;28;20222;-56
2022/12/12 04:29:06;;;;;;;23.33;13.67;;;-1.90;99.90;;;-141.84;78.29;18523.50;5043677;28;20226;-57
2022/12/12 04:31:41;;;;;;;25.60;13.63;;;-1.90;99.90;;;-141.84;78.87;18525.53;5035959;28;20232;-57
2022/12/12 04:34:17;;;;;;;20.17;12.77;;;-1.90;99.90;;;-141.84;79.00;18525.53;5036863;28;20899;-55
2022/12/12 04:36:49;;;;;;;24.07;13.57;;;-1.90;99.90;;;-141.84;79.26;18517.41;5039582;28;20286;-58
2022/12/12 04:39:21;;;;;;;23.57;13.83;;;-2.00;99.90;;;-141.84;79.40;18531.63;5031515;28;20222;-57
2022/12/12 04:41:54;;;;;;;21.97;13.50;;;-1.90;99.90;;;-141.84;79.12;18529.59;5038375;28;20263;-55
2022/12/12 04:44:27;;;;;;;22.00;13.57;;;-2.00;99.90;;;-141.84;79.18;18517.41;5034913;28;20213;-59
2022/12/12 04:46:58;;;;;;;23.30;14.07;;;-1.90;99.90;;;-141.84;79.45;18493.03;5043198;28;20214;-58
2022/12/12 04:49:30;;;;;;;23.70;14.13;;;-1.90;99.90;;;-141.84;79.39;18505.22;5037535;28;20229;-57
2022/12/12 04:52:05;;;;;;;23.43;13.20;;;-1.80;99.90;;;-141.84;79.28;18531.63;5042092;28;20736;-58
2022/12/12 04:54:44;;;;;;;20.83;12.83;;;-1.80;99.90;;;-141.84;78.94;18515.38;5045412;28;20224;-58
2022/12/12 04:57:21;;;;;;;21.60;13.17;;;-1.80;99.90;;;-141.84;79.63;18517.41;5048708;28;20224;-56
2022/12/12 04:59:50;;;;;;;25.13;13.90;;;-1.80;99.90;;;-141.84;79.73;18527.56;5031337;28;20272;-57
2022/12/12 05:02:30;;;;;;;21.20;12.53;;;-1.80;99.90;;;-141.84;80.05;18523.50;5042302;28;20225;-57
2022/12/12 05:05:06;;;;;;;21.83;13.53;;;-1.90;99.90;;;-141.84;79.84;18549.91;5036449;28;20217;-57
2022/12/12 05:07:39;;;;;;;21.70;12.73;;;-1.70;99.90;;;-141.84;79.64;18537.72;5037851;28;20224;-56
2022/12/12 05:10:13;;;;;;;19.77;12.40;;;-1.80;99.90;;;-141.84;79.50;18515.38;5043959;28;20243;-59
2022/12/12 05:12:46;;;;;;;20.10;12.33;;;-1.80;99.90;;;-141.84;79.68;18505.22;5047385;28;20221;-56
2022/12/12 05:15:16;;;;;;;19.37;12.43;;;-1.70;99.90;;;-141.84;78.93;18529.59;5030853;28;20241;-56
2022/12/12 05:17:48;;;;;;;19.73;11.87;;;-1.70;99.90;;;-141.84;78.71;18553.97;5030882;28;20651;-56
2022/12/12 05:20:16;;;;;;;21.07;12.60;;;-1.70;99.90;;;-141.84;79.10;18493.03;5031548;28;20237;-59
2022/12/12 05:22:44;;;;;;;22.20;12.33;;;-1.70;99.90;;;-141.84;79.23;18505.22;5041234;28;20229;-58
2022/12/12 05:25:13;;;;;;;18.33;11.77;;;-1.80;99.90;;;-141.84;79.40;18521.47;5031100;28;20338;-58
2022/12/12 05:27:43;;;;;;;20.67;11.90;;;-1.80;99.90;;;-141.84;79.12;18527.56;5041957;28;20247;-57
2022/12/12 05:30:13;;;;;;;20.03;12.60;;;-1.70;99.90;;;-141.84;78.10;18529.59;5047572;28;20225;-57
2022/12/12 05:32:41;;;;;;;19.93;12.33;;;-1.70;99.90;;;-141.84;78.07;18495.06;5041916;28;20266;-57
2022/12/12 05:35:10;;;;;;;21.30;13.10;;;-1.70;99.90;;;-141.84;78.77;18533.66;5031456;28;20551;-56
2022/12/12 05:37:39;;;;;;;19.97;12.03;;;-1.80;99.90;;;-141.84;79.03;18509.28;5042238;28;20233;-57
2022/12/12 05:40:09;;;;;;;19.70;12.03;;;-1.70;99.90;;;-141.84;79.37;18523.50;5030562;28;20226;-57
2022/12/12 05:42:37;;;;;;;19.63;12.33;;;-1.80;99.90;;;-141.84;79.37;18511.31;5041855;28;20240;-59
2022/12/12 05:45:10;;;;;;;18.77;12.37;;;-1.80;99.90;;;-141.84;78.75;18501.16;5039901;28;20621;-56
2022/12/12 05:47:38;;;;;;;21.13;11.77;;;-1.80;99.90;;;-141.84;79.19;18574.28;5043078;28;20217;-60
2022/12/12 05:50:08;;;;;;;19.43;11.47;;;-1.80;99.90;;;-141.84;79.49;18551.94;5036433;28;20791;-58
2022/12/12 05:52:37;;;;;;;19.50;12.33;;;-1.80;99.90;;;-141.84;79.27;18505.22;5041906;28;20696;-57
2022/12/12 05:55:06;;;;;;;21.50;11.87;;;-1.80;99.90;;;-141.84;79.35;18531.63;5030272;28;20230;-58
2022/12/12 05:57:34;;;;;;;18.13;11.33;;;-1.80;99.90;;;-141.84;78.45;18529.59;5040042;28;20229;-57
2022/12/12 06:00:03;;;;;;;20.30;11.87;;;-1.80;99.90;;;-141.84;78.43;18533.66;5030042;28;20234;-57
2022/12/12 06:02:33;;;;;;;19.30;11.67;;;-1.70;99.90;;;-141.84;78.36;18558.03;5041883;28;20229;-57
2022/12/12 06:05:01;;;;;;;18.10;12.17;;;-1.70;99.90;;;-141.84;78.20;18511.31;5036560;28;20220;-58
2022/12/12 06:07:29;;;;;;;17.97;11.70;;;-1.80;99.90;;;-141.84;78.73;18511.31;5037315;28;20217;-55
2022/12/12 06:09:57;;;;;;;16.73;11.43;;;-1.80;99.90;;;-141.84;78.31;18519.44;5048932;28;20555;-56
2022/12/12 06:12:26;;;;;;;18.23;12.23;;;-1.80;99.90;;;-141.84;78.57;18509.28;5041941;28;20633;-56
2022/12/12 06:14:54;;;;;;;18.40;12.33;;;-1.80;99.90;;;-141.84;79.19;18517.41;5030023;28;20225;-57
2022/12/12 06:17:22;;;;;;;18.07;12.00;;;-1.40;99.90;;;-141.84;79.49;18525.53;5029743;28;20257;-58
2022/12/12 06:19:58;;;;;;;21.03;11.77;;;-1.80;99.90;;;-141.84;79.08;18533.66;5030802;28;20203;-56
2022/12/12 06:22:26;;;;;;;17.87;11.33;;;-1.80;99.90;;;-141.84;79.09;18521.47;5041597;28;20221;-57
2022/12/12 06:24:54;;;;;;;17.17;11.17;;;-1.70;99.90;;;-141.84;79.02;18517.41;5030102;28;20237;-58
2022/12/12 06:27:22;;;;;;;16.50;10.00;;;-1.60;99.90;;;-141.84;79.29;18529.59;5038726;28;20251;-57
2022/12/12 06:29:50;;;;;;;19.17;11.23;;;-1.70;99.90;;;-141.84;79.39;18523.50;5037697;28;20225;-56
2022/12/12 06:32:18;;;;;;;18.60;12.27;;;-1.70;99.90;;;-141.84;79.33;18529.59;5040478;28;20580;-57
2022/12/12 06:34:46;;;;;;;17.13;10.17;;;-1.80;99.90;;;-141.84;79.21;18495.06;5032159;28;20240;-56
2022/12/12 06:37:16;;;;;;;17.77;11.67;;;-1.70;99.90;;;-141.84;79.21;18553.97;5043287;28;20725;-57
2022/12/12 06:39:45;;;;;;;17.33;10.73;;;-1.70;99.90;;;-141.84;79.72;18521.47;5052465;28;20225;-56
2022/12/12 06:42:13;;;;;;;18.83;11.87;;;-1.80;99.90;;;-141.84;80.16;18501.16;5052706;28;20229;-57
2022/12/12 06:44:42;;;;;;;17.97;11.73;;;-1.80;99.90;;;-141.84;79.62;18519.44;5049033;28;20290;-57
2022/12/12 06:47:10;;;;;;;19.27;11.70;;;-1.70;99.90;;;-141.84;79.26;18521.47;5040772;28;20287;-58
2022/12/12 06:49:38;;;;;;;18.20;11.57;;;-1.70;99.90;;;-141.84;79.56;18525.53;5050038;28;20241;-55
2022/12/12 06:52:06;;;;;;;16.63;11.37;;;-1.70;99.90;;;-141.84;80.34;18529.59;5050526;28;20217;-57
2022/12/12 06:54:36;;;;;;;16.87;11.50;;;-1.70;99.90;;;-141.84;80.46;18545.84;5048298;28;20221;-56
2022/12/12 06:57:05;;;;;;;18.20;11.70;;;-1.80;99.90;;;-141.84;80.42;18482.88;5048967;28;20601;-56
2022/12/12 06:59:33;;;;;;;19.90;11.27;;;-1.70;99.90;;;-141.84;80.67;18525.53;5035515;28;20224;-56
2022/12/12 07:02:01;;;;;;;21.27;12.90;;;-1.70;99.90;;;-141.84;80.46;18537.72;5047719;28;20211;-55
2022/12/12 07:04:29;;;;;;;18.23;11.97;;;-1.70;99.90;;;-141.84;79.90;18509.28;5050885;28;20229;-58
2022/12/12 07:06:58;;;;;;;17.03;11.37;;;-1.60;99.90;;;-141.84;79.35;18523.50;5050560;28;20224;-58
2022/12/12 07:09:27;;;;;;;21.47;12.77;;;-1.60;99.90;;;-141.84;79.12;18515.38;5050006;28;20237;-56
2022/12/12 07:11:56;;;;;;;21.10;12.20;;;-1.60;99.90;;;-141.84;79.60;18507.25;5051483;28;20221;-54
2022/12/12 07:14:24;;;;;;;18.07;12.10;;;-1.60;99.90;;;-141.84;79.79;18511.31;5048558;28;20676;-57
2022/12/12 07:16:53;;;;;;;20.20;12.27;;;-1.60;99.90;;;-141.84;79.93;18515.38;5050851;28;20206;-55
2022/12/12 07:19:21;;;;;;;20.03;12.83;;;-1.60;99.90;;;-141.84;79.81;18460.53;5050056;28;20218;-56
2022/12/12 07:21:50;;;;;;;19.43;12.63;;;-1.60;99.90;;;-141.84;79.73;18503.19;5051100;28;20233;-56
2022/12/12 07:24:18;;;;;;;24.27;13.60;;;-1.60;99.90;;;-141.84;79.30;18507.25;5036452;28;20269;-57
2022/12/12 07:26:46;;;;;;;22.23;13.77;;;-1.50;99.90;;;-141.84;79.77;18517.41;5037359;28;20243;-55
2022/12/12 07:29:16;;;;;;;24.50;14.23;;;-1.50;99.90;;;-141.84;80.28;18478.81;5051436;28;20201;-55
2022/12/12 07:31:44;;;;;;;23.07;13.30;;;-1.50;99.90;;;-141.84;80.60;18517.41;5043294;28;20250;-55
2022/12/12 07:34:12;;;;;;;24.17;14.10;;;-1.50;99.90;;;-141.84;80.53;18501.16;5039379;28;20685;-57
2022/12/12 07:36:41;;;;;;;21.77;12.93;;;-1.50;99.90;;;-141.84;80.34;18511.31;5049158;28;20231;-56
2022/12/12 07:39:09;;;;;;;24.70;14.03;;;-1.50;99.90;;;-141.84;80.06;18511.31;5033928;28;20222;-56
2022/12/12 07:41:38;;;;;;;22.67;12.97;;;-1.40;99.90;;;-141.84;80.37;18543.81;5051092;28;20209;-57
2022/12/12 07:44:08;;;;;;;23.20;14.43;;;-1.40;99.90;;;-141.84;80.87;18525.53;5051146;28;20232;-58
2022/12/12 07:46:37;;;;;;;25.70;13.40;;;-1.40;99.90;;;-141.84;80.85;18517.41;5050499;28;20233;-57
2022/12/12 07:49:05;;;;;;;26.87;14.67;;;-1.40;99.90;;;-141.84;81.31;18493.03;5050458;28;20232;-56
2022/12/12 07:51:34;;;;;;;22.23;13.57;;;-1.40;99.90;;;-141.84;81.57;18509.28;5049459;28;20229;-58
2022/12/12 07:54:02;;;;;;;23.30;13.90;;;-1.30;99.90;;;-141.84;81.57;18501.16;5049525;28;20243;-58
2022/12/12 07:56:30;;;;;;;25.27;14.97;;;-1.30;99.90;;;-141.84;81.57;18509.28;5047183;28;20205;-58
2022/12/12 07:58:58;;;;;;;24.13;14.03;;;-1.30;99.90;;;-141.84;81.49;18497.09;5051435;28;20201;-55
2022/12/12 08:01:28;;;;;;;23.67;13.60;;;-1.30;99.90;;;-141.84;81.57;18535.69;5049565;28;20228;-56
2022/12/12 08:03:58;;;;;;;23.37;13.80;;;-1.20;99.90;;;-141.84;81.24;18493.03;5051093;28;20275;-57
2022/12/12 08:06:26;;;;;;;23.70;14.63;;;-1.20;99.90;;;-141.84;81.13;18511.31;5049452;28;20255;-56
2022/12/12 08:08:54;;;;;;;24.17;14.50;;;-1.20;99.90;;;-141.84;80.13;18535.69;5050882;28;20231;-56
2022/12/12 08:11:25;;;;;;;24.97;13.80;;;-1.10;99.90;;;-141.84;80.00;18503.19;5049382;28;20209;-56
2022/12/12 08:13:53;;;;;;;25.90;14.57;;;-1.10;99.90;;;-141.84;80.30;18503.19;5049502;28;20657;-56
2022/12/12 08:16:25;;;;;;;27.97;15.37;;;-1.10;99.90;;;-141.84;80.14;18558.03;5050315;28;20812;-56
2022/12/12 08:18:54;;;;;;;26.03;14.90;;;-1.10;99.90;;;-141.84;80.18;18505.22;5045410;28;20232;-55
2022/12/12 08:21:24;;;;;;;30.37;15.73;;;-1.10;99.90;;;-141.84;80.09;18545.84;5049197;28;20227;-56
2022/12/12 08:23:56;;;;;;;25.43;15.10;;;-1.00;99.90;;;-141.84;79.90;18523.50;5046468;28;20323;-53
2022/12/12 08:26:25;;;;;;;26.23;14.73;;;-1.00;99.90;;;-141.84;79.91;18486.94;5050815;28;20212;-56
2022/12/12 08:28:55;;;;;;;23.17;14.47;;;-0.90;99.90;;;-141.84;79.89;18531.63;5050638;28;20212;-58
2022/12/12 08:31:24;;;;;;;25.07;15.57;;;-0.90;99.90;;;-141.84;79.84;18497.09;5048943;28;20225;-57
2022/12/12 08:33:52;;;;;;;25.53;14.40;;;-0.90;99.90;;;-141.84;79.56;18537.72;5049144;28;20217;-58
2022/12/12 08:36:25;;;;;;;24.47;13.73;;;-0.90;99.90;;;-141.84;79.48;18531.63;5047400;28;20678;-55
2022/12/12 08:38:54;;;;;;;22.57;14.63;;;-0.80;99.90;;;-141.84;78.74;18521.47;5047288;28;20218;-58
2022/12/12 08:41:22;;;;;;;24.67;14.47;;;-0.70;99.90;;;-141.84;78.86;18521.47;5048695;28;20615;-56
2022/12/12 08:43:51;;;;;;;22.37;13.63;;;-0.60;99.90;;;-141.84;78.57;18539.75;5050968;28;20276;-58
2022/12/12 08:46:20;;;;;;;24.13;13.73;;;-0.60;99.90;;;-141.84;78.75;18521.47;5048023;28;20229;-58
2022/12/12 08:48:49;;;;;;;21.27;14.10;;;-0.60;99.90;;;-141.84;78.85;18537.72;5044885;28;20229;-59
2022/12/12 08:51:18;;;;;;;27.47;15.37;;;-0.60;99.90;;;-141.84;78.92;18525.53;5048713;28;20228;-57
2022/12/12 08:53:50;;;;;;;23.67;14.50;;;-0.50;99.90;;;-141.84;79.12;18539.75;5048508;28;20780;-58
2022/12/12 08:56:20;;;;;;;25.63;14.87;;;-0.50;99.90;;;-141.84;79.12;18523.50;5049739;28;20525;-56
2022/12/12 08:58:50;;;;;;;23.00;14.17;;;-0.50;99.90;;;-141.84;78.40;18578.38;5046002;28;20822;-56
2022/12/12 09:01:21;;;;;;;24.63;15.07;;;-0.30;99.90;;;-141.84;78.49;18558.03;5048656;28;20239;-56
2022/12/12 09:03:50;;;;;;;24.33;14.23;;;-0.30;99.90;;;-141.84;76.95;18578.38;5048612;28;20265;-56
2022/12/12 09:06:19;;;;;;;21.97;14.13;;;-0.30;99.90;;;-141.84;76.43;18564.13;5047910;28;20626;-55
2022/12/12 09:08:50;;;;;;;26.10;14.70;;;-0.30;99.90;;;-141.84;76.19;18562.09;5046099;28;20252;-56
2022/12/12 09:11:19;;;;;;;26.00;14.27;;;-0.30;99.90;;;-141.84;76.36;18560.06;5034238;28;20254;-53
2022/12/12 09:13:47;;;;;;;25.20;14.90;;;-0.30;99.90;;;-141.84;76.32;18570.22;5039443;28;20230;-56
2022/12/12 09:16:18;;;;;;;29.83;14.47;;;-0.30;99.90;;;-141.84;75.57;18566.16;5030761;28;20628;-56
2022/12/12 09:18:46;;;;;;;23.40;13.83;;;-0.20;99.90;;;-141.84;75.92;18584.47;5031169;28;20232;-57
2022/12/12 09:21:17;;;;;;;25.77;13.37;;;-0.20;99.90;;;-141.84;75.10;18604.78;5033820;28;20237;-75
2022/12/12 09:23:46;;;;;;;25.60;14.03;;;-0.20;99.90;;;-141.84;75.19;18598.69;5039623;28;20581;-75
2022/12/12 09:26:16;;;;;;;24.57;13.60;;;-0.10;99.90;;;-141.84;74.76;18568.19;5044783;28;20209;-74
2022/12/12 09:28:45;;;;;;;23.80;14.27;;;-0.10;99.90;;;-141.84;74.81;18582.44;5045060;28;20267;-76
2022/12/12 09:31:13;;;;;;;24.47;14.00;;;-0.10;99.90;;;-141.84;73.29;18594.63;5032910;28;20237;-73
2022/12/12 09:33:42;;;;;;;20.97;12.60;;;0.00;99.90;;;-141.84;74.17;18596.66;5050491;28;20239;-73
2022/12/12 09:36:12;;;;;;;26.37;13.70;;;0.00;99.90;;;-141.84;74.52;18598.69;5043339;28;20629;-73
2022/12/12 09:38:41;;;;;;;20.60;12.90;;;0.10;99.90;;;-141.84;74.52;18600.72;5049216;28;20201;-56
2022/12/12 09:41:18;;;;;;;18.80;11.93;;;0.20;99.90;;;-141.84;73.30;18659.63;5050560;28;20220;-56
2022/12/12 09:43:57;;;;;;;20.30;12.60;;;0.20;99.90;;;-141.84;72.69;18621.03;5036714;28;20229;-57
2022/12/12 09:46:36;;;;;;;18.63;12.13;;;0.40;99.90;;;-141.84;71.15;18635.25;5049731;28;20228;-56
2022/12/12 09:49:15;;;;;;;20.10;12.47;;;0.40;99.90;;;-141.84;70.88;18621.03;5050369;28;20237;-57
2022/12/12 09:51:47;;;;;;;22.57;12.53;;;0.30;99.90;;;-141.84;71.25;18631.19;5050691;28;20245;-58
2022/12/12 09:54:20;;;;;;;18.53;12.33;;;0.30;99.90;;;-141.84;71.65;18604.78;5050653;28;20236;-55
2022/12/12 09:57:12;;;;;;;20.10;13.23;;;0.20;99.90;;;-141.84;72.09;18606.81;5050172;28;20255;-56
2022/12/12 09:59:51;;;;;;;19.37;11.73;;;0.30;99.90;;;-141.84;71.78;18596.66;5050631;28;20201;-56
2022/12/12 10:02:46;;;;;;;20.67;12.33;;;0.30;99.90;;;-141.84;70.81;18631.19;5051289;28;20242;-55
2022/12/12 10:05:29;;;;;;;17.70;11.47;;;0.50;99.90;;;-141.84;70.36;18612.91;5050605;28;20673;-57
2022/12/12 10:08:13;;;;;;;15.93;10.87;;;0.40;99.90;;;-141.84;69.97;18631.19;5050221;28;20271;-56
2022/12/12 10:10:45;;;;;;;18.33;11.50;;;0.40;99.90;;;-141.84;70.31;18645.41;5053880;28;20236;-56
2022/12/12 10:13:21;;;;;;;20.93;11.93;;;0.40;99.90;;;-141.84;70.48;18645.41;5053963;28;20286;-56
2022/12/12 10:15:54;;;;;;;16.23;11.23;;;0.40;99.90;;;-141.84;69.20;18647.44;5054196;28;20236;-58
2022/12/12 10:18:29;;;;;;;18.00;12.03;;;0.50;99.90;;;-141.84;68.45;18686.03;5054262;28;20594;-57
2022/12/12 10:21:04;;;;;;;17.77;11.77;;;0.50;99.90;;;-141.84;68.80;18663.69;5054151;28;20576;-56
2022/12/12 10:23:40;;;;;;;17.07;11.37;;;0.60;99.90;;;-141.84;68.47;18649.47;5054226;28;20615;-57
2022/12/12 10:26:16;;;;;;;18.43;11.70;;;0.60;99.90;;;-141.84;68.58;18669.78;5054724;28;20201;-56
2022/12/12 10:28:50;;;;;;;18.87;11.40;;;0.50;99.90;;;-141.84;68.45;18671.81;5053999;28;20236;-57
2022/12/12 10:31:33;;;;;;;18.33;12.00;;;0.50;99.90;;;-141.84;68.74;18675.88;5053937;28;20347;-58
2022/12/12 10:34:25;;;;;;;18.07;11.30;;;0.50;99.90;;;-141.84;68.70;18663.69;5053782;28;20240;-57
2022/12/12 10:37:11;;;;;;;17.93;11.83;;;0.70;99.90;;;-141.84;67.61;18679.94;5053846;28;20233;-56